sensor_id;sensor_type;location;lat;lon;timestamp;P1;durP1;ratioP1;P2;durP2;ratioP2
18142;SDS011;9197;50.930;3.140;2023-03-31T00:00:25;15.47;;;3.70;;
18142;SDS011;9197;50.930;3.140;2023-03-31T00:02:54;12.97;;;3.47;;
18142;SDS011;9197;50.930;3.140;2023-03-31T00:05:22;9.50;;;3.50;;
18142;SDS011;9197;50.930;3.140;2023-03-31T00:07:52;15.13;;;3.73;;
18142;SDS011;9197;50.930;3.140;2023-03-31T00:10:19;16.70;;;3.67;;
18142;SDS011;9197;50.930;3.140;2023-03-31T00:12:47;14.13;;;3.20;;
18142;SDS011;9197;50.930;3.140;2023-03-31T00:15:15;13.03;;;3.10;;
18142;SDS011;9197;50.930;3.140;2023-03-31T00:17:42;17.50;;;4.10;;
18142;SDS011;9197;50.930;3.140;2023-03-31T00:20:12;13.73;;;3.27;;
18142;SDS011;9197;50.930;3.140;2023-03-31T00:22:40;13.63;;;3.33;;
18142;SDS011;9197;50.930;3.140;2023-03-31T00:25:10;14.77;;;4.83;;
18142;SDS011;9197;50.930;3.140;2023-03-31T00:27:40;16.33;;;3.70;;
18142;SDS011;9197;50.930;3.140;2023-03-31T00:30:08;16.37;;;3.50;;
18142;SDS011;9197;50.930;3.140;2023-03-31T00:32:36;16.47;;;4.10;;
18142;SDS011;9197;50.930;3.140;2023-03-31T00:35:04;13.17;;;4.20;;
18142;SDS011;9197;50.930;3.140;2023-03-31T00:37:34;15.40;;;4.67;;
18142;SDS011;9197;50.930;3.140;2023-03-31T00:40:02;18.47;;;3.30;;
18142;SDS011;9197;50.930;3.140;2023-03-31T00:42:37;15.07;;;4.73;;
18142;SDS011;9197;50.930;3.140;2023-03-31T00:45:20;11.37;;;3.93;;
18142;SDS011;9197;50.930;3.140;2023-03-31T00:47:49;23.90;;;4.20;;
18142;SDS011;9197;50.930;3.140;2023-03-31T00:50:18;15.70;;;3.50;;
18142;SDS011;9197;50.930;3.140;2023-03-31T00:52:48;19.73;;;3.47;;
18142;SDS011;9197;50.930;3.140;2023-03-31T00:55:18;14.60;;;4.63;;
18142;SDS011;9197;50.930;3.140;2023-03-31T00:57:46;10.83;;;4.10;;
18142;SDS011;9197;50.930;3.140;2023-03-31T01:00:17;12.13;;;3.60;;
18142;SDS011;9197;50.930;3.140;2023-03-31T01:02:46;16.73;;;4.63;;
18142;SDS011;9197;50.930;3.140;2023-03-31T01:05:17;19.13;;;4.73;;
18142;SDS011;9197;50.930;3.140;2023-03-31T01:07:45;16.37;;;6.83;;
18142;SDS011;9197;50.930;3.140;2023-03-31T01:10:16;16.20;;;5.17;;
18142;SDS011;9197;50.930;3.140;2023-03-31T01:12:45;15.83;;;4.43;;
18142;SDS011;9197;50.930;3.140;2023-03-31T01:15:13;21.27;;;2.83;;
18142;SDS011;9197;50.930;3.140;2023-03-31T01:17:40;21.30;;;4.63;;
18142;SDS011;9197;50.930;3.140;2023-03-31T01:20:09;14.90;;;3.80;;
18142;SDS011;9197;50.930;3.140;2023-03-31T01:25:41;13.77;;;3.40;;
18142;SDS011;9197;50.930;3.140;2023-03-31T01:28:21;11.80;;;3.57;;
18142;SDS011;9197;50.930;3.140;2023-03-31T01:33:50;12.33;;;3.87;;
18142;SDS011;9197;50.930;3.140;2023-03-31T01:39:20;12.77;;;5.20;;
18142;SDS011;9197;50.930;3.140;2023-03-31T01:41:56;17.90;;;4.20;;
18142;SDS011;9197;50.930;3.140;2023-03-31T01:44:27;11.17;;;4.03;;
18142;SDS011;9197;50.930;3.140;2023-03-31T01:46:59;13.13;;;4.80;;
18142;SDS011;9197;50.930;3.140;2023-03-31T01:49:28;12.20;;;4.47;;
18142;SDS011;9197;50.930;3.140;2023-03-31T01:52:01;17.73;;;4.43;;
18142;SDS011;9197;50.930;3.140;2023-03-31T01:54:31;12.20;;;3.67;;
18142;SDS011;9197;50.930;3.140;2023-03-31T01:57:04;11.67;;;4.60;;
18142;SDS011;9197;50.930;3.140;2023-03-31T01:59:34;16.70;;;4.87;;
18142;SDS011;9197;50.930;3.140;2023-03-31T02:02:05;13.53;;;4.93;;
18142;SDS011;9197;50.930;3.140;2023-03-31T02:04:34;11.07;;;3.27;;
18142;SDS011;9197;50.930;3.140;2023-03-31T02:07:04;14.30;;;3.67;;
18142;SDS011;9197;50.930;3.140;2023-03-31T02:09:34;17.97;;;4.00;;
18142;SDS011;9197;50.930;3.140;2023-03-31T02:12:06;13.43;;;4.57;;
18142;SDS011;9197;50.930;3.140;2023-03-31T02:14:34;15.50;;;4.50;;
18142;SDS011;9197;50.930;3.140;2023-03-31T02:17:02;14.03;;;3.93;;
18142;SDS011;9197;50.930;3.140;2023-03-31T02:19:33;9.90;;;3.57;;
18142;SDS011;9197;50.930;3.140;2023-03-31T02:22:01;13.67;;;3.97;;
18142;SDS011;9197;50.930;3.140;2023-03-31T02:24:29;12.03;;;4.07;;
18142;SDS011;9197;50.930;3.140;2023-03-31T02:26:58;12.93;;;3.73;;
18142;SDS011;9197;50.930;3.140;2023-03-31T02:29:31;14.53;;;3.50;;
18142;SDS011;9197;50.930;3.140;2023-03-31T02:31:59;5.90;;;2.73;;
18142;SDS011;9197;50.930;3.140;2023-03-31T02:34:28;8.70;;;3.03;;
18142;SDS011;9197;50.930;3.140;2023-03-31T02:36:56;12.40;;;3.13;;
18142;SDS011;9197;50.930;3.140;2023-03-31T02:39:24;5.97;;;2.57;;
18142;SDS011;9197;50.930;3.140;2023-03-31T02:41:52;11.27;;;2.33;;
18142;SDS011;9197;50.930;3.140;2023-03-31T02:44:20;7.37;;;2.60;;
18142;SDS011;9197;50.930;3.140;2023-03-31T02:46:48;6.63;;;2.43;;
18142;SDS011;9197;50.930;3.140;2023-03-31T02:49:16;4.57;;;2.30;;
18142;SDS011;9197;50.930;3.140;2023-03-31T02:51:48;7.87;;;2.53;;
18142;SDS011;9197;50.930;3.140;2023-03-31T02:54:28;8.83;;;2.30;;
18142;SDS011;9197;50.930;3.140;2023-03-31T02:57:06;8.10;;;2.43;;
18142;SDS011;9197;50.930;3.140;2023-03-31T02:59:39;7.17;;;2.30;;
18142;SDS011;9197;50.930;3.140;2023-03-31T03:02:11;3.77;;;1.80;;
18142;SDS011;9197;50.930;3.140;2023-03-31T03:04:57;6.13;;;1.43;;
18142;SDS011;9197;50.930;3.140;2023-03-31T03:07:29;6.40;;;1.90;;
18142;SDS011;9197;50.930;3.140;2023-03-31T03:10:02;4.43;;;1.50;;
18142;SDS011;9197;50.930;3.140;2023-03-31T03:12:32;4.67;;;1.17;;
18142;SDS011;9197;50.930;3.140;2023-03-31T03:15:01;2.73;;;1.23;;
18142;SDS011;9197;50.930;3.140;2023-03-31T03:17:31;3.70;;;1.10;;
18142;SDS011;9197;50.930;3.140;2023-03-31T03:20:01;2.77;;;0.80;;
18142;SDS011;9197;50.930;3.140;2023-03-31T03:22:32;0.80;;;0.50;;
18142;SDS011;9197;50.930;3.140;2023-03-31T03:24:59;3.07;;;1.47;;
18142;SDS011;9197;50.930;3.140;2023-03-31T03:27:27;4.60;;;1.10;;
18142;SDS011;9197;50.930;3.140;2023-03-31T03:29:54;1.80;;;0.70;;
18142;SDS011;9197;50.930;3.140;2023-03-31T03:32:22;0.80;;;0.67;;
18142;SDS011;9197;50.930;3.140;2023-03-31T03:34:51;1.70;;;0.60;;
18142;SDS011;9197;50.930;3.140;2023-03-31T03:37:18;1.63;;;0.63;;
18142;SDS011;9197;50.930;3.140;2023-03-31T03:39:45;2.00;;;0.70;;
18142;SDS011;9197;50.930;3.140;2023-03-31T03:42:13;1.13;;;0.50;;
18142;SDS011;9197;50.930;3.140;2023-03-31T03:44:40;3.33;;;1.00;;
18142;SDS011;9197;50.930;3.140;2023-03-31T03:47:08;3.87;;;0.90;;
18142;SDS011;9197;50.930;3.140;2023-03-31T03:49:35;3.27;;;0.70;;
18142;SDS011;9197;50.930;3.140;2023-03-31T03:52:04;4.70;;;0.90;;
18142;SDS011;9197;50.930;3.140;2023-03-31T03:54:31;3.13;;;0.77;;
18142;SDS011;9197;50.930;3.140;2023-03-31T03:56:58;1.67;;;0.90;;
18142;SDS011;9197;50.930;3.140;2023-03-31T03:59:26;1.77;;;0.70;;
18142;SDS011;9197;50.930;3.140;2023-03-31T04:01:53;0.93;;;0.60;;
18142;SDS011;9197;50.930;3.140;2023-03-31T04:04:21;3.47;;;0.90;;
18142;SDS011;9197;50.930;3.140;2023-03-31T04:06:48;0.93;;;0.70;;
18142;SDS011;9197;50.930;3.140;2023-03-31T04:09:17;1.33;;;0.70;;
18142;SDS011;9197;50.930;3.140;2023-03-31T04:11:44;2.47;;;1.03;;
18142;SDS011;9197;50.930;3.140;2023-03-31T04:14:11;4.37;;;1.13;;
18142;SDS011;9197;50.930;3.140;2023-03-31T04:16:39;3.27;;;0.67;;
18142;SDS011;9197;50.930;3.140;2023-03-31T04:19:06;2.73;;;1.00;;
18142;SDS011;9197;50.930;3.140;2023-03-31T04:21:36;6.63;;;1.63;;
18142;SDS011;9197;50.930;3.140;2023-03-31T04:24:09;6.23;;;0.83;;
18142;SDS011;9197;50.930;3.140;2023-03-31T04:26:41;3.47;;;1.20;;
18142;SDS011;9197;50.930;3.140;2023-03-31T04:29:09;3.47;;;1.50;;
18142;SDS011;9197;50.930;3.140;2023-03-31T04:31:36;5.80;;;1.93;;
18142;SDS011;9197;50.930;3.140;2023-03-31T04:34:06;4.17;;;1.40;;
18142;SDS011;9197;50.930;3.140;2023-03-31T04:36:37;6.87;;;2.47;;
18142;SDS011;9197;50.930;3.140;2023-03-31T04:39:06;3.83;;;2.17;;
18142;SDS011;9197;50.930;3.140;2023-03-31T04:41:35;1.63;;;1.17;;
18142;SDS011;9197;50.930;3.140;2023-03-31T04:44:04;5.93;;;2.10;;
18142;SDS011;9197;50.930;3.140;2023-03-31T04:46:31;5.20;;;1.70;;
18142;SDS011;9197;50.930;3.140;2023-03-31T04:48:58;5.67;;;1.67;;
18142;SDS011;9197;50.930;3.140;2023-03-31T04:51:27;5.47;;;2.20;;
18142;SDS011;9197;50.930;3.140;2023-03-31T04:53:54;7.10;;;2.43;;
18142;SDS011;9197;50.930;3.140;2023-03-31T04:56:21;7.90;;;2.27;;
18142;SDS011;9197;50.930;3.140;2023-03-31T04:58:49;6.23;;;2.10;;
18142;SDS011;9197;50.930;3.140;2023-03-31T05:01:17;6.83;;;2.23;;
18142;SDS011;9197;50.930;3.140;2023-03-31T05:03:45;8.83;;;2.67;;
18142;SDS011;9197;50.930;3.140;2023-03-31T05:06:12;15.97;;;3.80;;
18142;SDS011;9197;50.930;3.140;2023-03-31T05:08:40;9.27;;;2.83;;
18142;SDS011;9197;50.930;3.140;2023-03-31T05:11:07;8.43;;;3.30;;
18142;SDS011;9197;50.930;3.140;2023-03-31T05:13:35;15.03;;;4.20;;
18142;SDS011;9197;50.930;3.140;2023-03-31T05:16:05;10.73;;;3.33;;
18142;SDS011;9197;50.930;3.140;2023-03-31T05:18:34;12.27;;;4.07;;
18142;SDS011;9197;50.930;3.140;2023-03-31T05:21:08;14.73;;;3.73;;
18142;SDS011;9197;50.930;3.140;2023-03-31T05:23:36;11.30;;;3.90;;
18142;SDS011;9197;50.930;3.140;2023-03-31T05:26:03;16.20;;;4.90;;
18142;SDS011;9197;50.930;3.140;2023-03-31T05:28:32;14.83;;;4.10;;
18142;SDS011;9197;50.930;3.140;2023-03-31T05:30:59;14.23;;;4.70;;
18142;SDS011;9197;50.930;3.140;2023-03-31T05:33:26;14.53;;;4.57;;
18142;SDS011;9197;50.930;3.140;2023-03-31T05:35:55;17.20;;;4.60;;
18142;SDS011;9197;50.930;3.140;2023-03-31T05:38:24;22.13;;;5.17;;
18142;SDS011;9197;50.930;3.140;2023-03-31T05:40:53;24.97;;;5.73;;
18142;SDS011;9197;50.930;3.140;2023-03-31T05:43:20;21.73;;;4.40;;
18142;SDS011;9197;50.930;3.140;2023-03-31T05:45:48;18.47;;;5.13;;
18142;SDS011;9197;50.930;3.140;2023-03-31T05:48:15;19.10;;;4.40;;
18142;SDS011;9197;50.930;3.140;2023-03-31T05:50:43;15.60;;;4.30;;
18142;SDS011;9197;50.930;3.140;2023-03-31T05:53:11;14.77;;;4.50;;
18142;SDS011;9197;50.930;3.140;2023-03-31T05:55:39;14.23;;;4.63;;
18142;SDS011;9197;50.930;3.140;2023-03-31T05:58:06;20.83;;;4.87;;
18142;SDS011;9197;50.930;3.140;2023-03-31T06:00:34;15.80;;;5.20;;
18142;SDS011;9197;50.930;3.140;2023-03-31T06:03:02;16.50;;;4.77;;
18142;SDS011;9197;50.930;3.140;2023-03-31T06:05:32;13.63;;;4.53;;
18142;SDS011;9197;50.930;3.140;2023-03-31T06:07:59;15.70;;;3.93;;
18142;SDS011;9197;50.930;3.140;2023-03-31T06:10:28;21.47;;;5.10;;
18142;SDS011;9197;50.930;3.140;2023-03-31T06:12:55;22.37;;;5.90;;
18142;SDS011;9197;50.930;3.140;2023-03-31T06:15:23;17.97;;;5.20;;
18142;SDS011;9197;50.930;3.140;2023-03-31T06:17:50;20.27;;;5.13;;
18142;SDS011;9197;50.930;3.140;2023-03-31T06:20:17;13.63;;;4.37;;
18142;SDS011;9197;50.930;3.140;2023-03-31T06:22:45;18.47;;;4.80;;
18142;SDS011;9197;50.930;3.140;2023-03-31T06:25:12;16.93;;;4.87;;
18142;SDS011;9197;50.930;3.140;2023-03-31T06:27:41;14.63;;;4.37;;
18142;SDS011;9197;50.930;3.140;2023-03-31T06:30:09;15.03;;;4.23;;
18142;SDS011;9197;50.930;3.140;2023-03-31T06:32:36;19.03;;;4.97;;
18142;SDS011;9197;50.930;3.140;2023-03-31T06:35:03;17.47;;;4.30;;
18142;SDS011;9197;50.930;3.140;2023-03-31T06:37:31;17.43;;;4.10;;
18142;SDS011;9197;50.930;3.140;2023-03-31T06:39:58;17.20;;;4.50;;
18142;SDS011;9197;50.930;3.140;2023-03-31T06:42:25;15.60;;;5.40;;
18142;SDS011;9197;50.930;3.140;2023-03-31T06:44:54;16.90;;;5.23;;
18142;SDS011;9197;50.930;3.140;2023-03-31T06:47:21;15.23;;;5.17;;
18142;SDS011;9197;50.930;3.140;2023-03-31T06:49:48;20.47;;;3.67;;
18142;SDS011;9197;50.930;3.140;2023-03-31T06:52:15;22.70;;;4.63;;
18142;SDS011;9197;50.930;3.140;2023-03-31T06:54:43;19.60;;;5.17;;
18142;SDS011;9197;50.930;3.140;2023-03-31T06:57:11;18.60;;;4.53;;
18142;SDS011;9197;50.930;3.140;2023-03-31T06:59:38;20.87;;;5.07;;
18142;SDS011;9197;50.930;3.140;2023-03-31T07:02:08;20.33;;;4.57;;
18142;SDS011;9197;50.930;3.140;2023-03-31T07:04:35;21.60;;;4.57;;
18142;SDS011;9197;50.930;3.140;2023-03-31T07:07:03;19.90;;;4.60;;
18142;SDS011;9197;50.930;3.140;2023-03-31T07:09:30;21.47;;;5.43;;
18142;SDS011;9197;50.930;3.140;2023-03-31T07:11:57;18.33;;;4.60;;
18142;SDS011;9197;50.930;3.140;2023-03-31T07:14:24;17.23;;;4.37;;
18142;SDS011;9197;50.930;3.140;2023-03-31T07:16:52;17.03;;;4.33;;
18142;SDS011;9197;50.930;3.140;2023-03-31T07:19:20;15.37;;;5.43;;
18142;SDS011;9197;50.930;3.140;2023-03-31T07:21:48;19.40;;;5.40;;
18142;SDS011;9197;50.930;3.140;2023-03-31T07:24:15;23.30;;;5.97;;
18142;SDS011;9197;50.930;3.140;2023-03-31T07:26:42;22.70;;;5.80;;
18142;SDS011;9197;50.930;3.140;2023-03-31T07:29:09;19.47;;;5.00;;
18142;SDS011;9197;50.930;3.140;2023-03-31T07:31:37;21.60;;;4.80;;
18142;SDS011;9197;50.930;3.140;2023-03-31T07:34:04;29.57;;;6.93;;
18142;SDS011;9197;50.930;3.140;2023-03-31T07:36:33;16.90;;;4.43;;
18142;SDS011;9197;50.930;3.140;2023-03-31T07:39:00;28.47;;;5.97;;
18142;SDS011;9197;50.930;3.140;2023-03-31T07:41:28;19.57;;;4.90;;
18142;SDS011;9197;50.930;3.140;2023-03-31T07:43:55;26.53;;;6.77;;
18142;SDS011;9197;50.930;3.140;2023-03-31T07:46:23;19.80;;;4.60;;
18142;SDS011;9197;50.930;3.140;2023-03-31T07:48:50;20.80;;;4.67;;
18142;SDS011;9197;50.930;3.140;2023-03-31T07:51:19;23.00;;;6.03;;
18142;SDS011;9197;50.930;3.140;2023-03-31T07:53:48;25.20;;;5.43;;
18142;SDS011;9197;50.930;3.140;2023-03-31T07:56:16;21.67;;;4.60;;
18142;SDS011;9197;50.930;3.140;2023-03-31T07:58:44;16.27;;;4.80;;
18142;SDS011;9197;50.930;3.140;2023-03-31T08:01:12;14.07;;;3.90;;
18142;SDS011;9197;50.930;3.140;2023-03-31T08:03:41;19.00;;;5.50;;
18142;SDS011;9197;50.930;3.140;2023-03-31T08:06:08;24.13;;;4.47;;
18142;SDS011;9197;50.930;3.140;2023-03-31T08:08:36;20.87;;;6.60;;
18142;SDS011;9197;50.930;3.140;2023-03-31T08:11:08;21.30;;;5.00;;
18142;SDS011;9197;50.930;3.140;2023-03-31T08:13:36;18.67;;;5.10;;
18142;SDS011;9197;50.930;3.140;2023-03-31T08:16:03;15.47;;;3.93;;
18142;SDS011;9197;50.930;3.140;2023-03-31T08:18:31;17.40;;;4.13;;
18142;SDS011;9197;50.930;3.140;2023-03-31T08:20:58;17.50;;;4.43;;
18142;SDS011;9197;50.930;3.140;2023-03-31T08:23:25;16.80;;;3.77;;
18142;SDS011;9197;50.930;3.140;2023-03-31T08:25:53;15.20;;;4.20;;
18142;SDS011;9197;50.930;3.140;2023-03-31T08:28:21;14.47;;;3.70;;
18142;SDS011;9197;50.930;3.140;2023-03-31T08:30:48;15.57;;;4.30;;
18142;SDS011;9197;50.930;3.140;2023-03-31T08:33:16;17.27;;;5.47;;
18142;SDS011;9197;50.930;3.140;2023-03-31T08:35:43;15.93;;;4.03;;
18142;SDS011;9197;50.930;3.140;2023-03-31T08:38:10;17.73;;;5.20;;
18142;SDS011;9197;50.930;3.140;2023-03-31T08:40:40;18.40;;;4.17;;
18142;SDS011;9197;50.930;3.140;2023-03-31T08:43:09;24.20;;;4.40;;
18142;SDS011;9197;50.930;3.140;2023-03-31T08:45:40;16.30;;;5.23;;
18142;SDS011;9197;50.930;3.140;2023-03-31T08:48:13;17.50;;;4.57;;
18142;SDS011;9197;50.930;3.140;2023-03-31T08:50:46;16.87;;;4.73;;
18142;SDS011;9197;50.930;3.140;2023-03-31T08:53:16;23.33;;;4.27;;
18142;SDS011;9197;50.930;3.140;2023-03-31T08:55:47;15.27;;;4.00;;
18142;SDS011;9197;50.930;3.140;2023-03-31T08:58:19;19.57;;;4.53;;
18142;SDS011;9197;50.930;3.140;2023-03-31T09:00:50;19.57;;;4.90;;
18142;SDS011;9197;50.930;3.140;2023-03-31T09:03:22;12.20;;;3.33;;
18142;SDS011;9197;50.930;3.140;2023-03-31T09:05:51;18.43;;;3.97;;
18142;SDS011;9197;50.930;3.140;2023-03-31T09:08:25;16.17;;;3.73;;
18142;SDS011;9197;50.930;3.140;2023-03-31T09:10:58;19.47;;;5.37;;
18142;SDS011;9197;50.930;3.140;2023-03-31T09:13:37;16.67;;;6.40;;
18142;SDS011;9197;50.930;3.140;2023-03-31T09:16:11;26.67;;;5.67;;
18142;SDS011;9197;50.930;3.140;2023-03-31T09:18:40;24.43;;;5.27;;
18142;SDS011;9197;50.930;3.140;2023-03-31T09:21:12;19.03;;;6.63;;
18142;SDS011;9197;50.930;3.140;2023-03-31T09:23:43;19.17;;;4.40;;
18142;SDS011;9197;50.930;3.140;2023-03-31T09:26:16;21.90;;;5.53;;
18142;SDS011;9197;50.930;3.140;2023-03-31T09:28:45;20.40;;;4.53;;
18142;SDS011;9197;50.930;3.140;2023-03-31T09:31:15;17.10;;;3.70;;
18142;SDS011;9197;50.930;3.140;2023-03-31T09:33:44;17.53;;;4.23;;
18142;SDS011;9197;50.930;3.140;2023-03-31T09:36:13;20.37;;;4.47;;
18142;SDS011;9197;50.930;3.140;2023-03-31T09:38:41;16.97;;;3.57;;
18142;SDS011;9197;50.930;3.140;2023-03-31T09:41:09;18.47;;;3.63;;
18142;SDS011;9197;50.930;3.140;2023-03-31T09:43:38;17.90;;;3.43;;
18142;SDS011;9197;50.930;3.140;2023-03-31T09:46:09;11.70;;;2.97;;
18142;SDS011;9197;50.930;3.140;2023-03-31T09:48:40;16.27;;;3.00;;
18142;SDS011;9197;50.930;3.140;2023-03-31T09:51:13;16.10;;;2.97;;
18142;SDS011;9197;50.930;3.140;2023-03-31T09:53:43;15.20;;;4.83;;
18142;SDS011;9197;50.930;3.140;2023-03-31T09:56:11;20.10;;;4.37;;
18142;SDS011;9197;50.930;3.140;2023-03-31T09:58:39;10.30;;;3.10;;
18142;SDS011;9197;50.930;3.140;2023-03-31T10:01:07;15.00;;;3.77;;
18142;SDS011;9197;50.930;3.140;2023-03-31T10:03:44;19.87;;;4.57;;
18142;SDS011;9197;50.930;3.140;2023-03-31T10:06:13;14.00;;;3.67;;
18142;SDS011;9197;50.930;3.140;2023-03-31T10:08:42;24.37;;;4.77;;
18142;SDS011;9197;50.930;3.140;2023-03-31T10:11:13;15.93;;;4.77;;
18142;SDS011;9197;50.930;3.140;2023-03-31T10:13:43;19.63;;;5.30;;
18142;SDS011;9197;50.930;3.140;2023-03-31T10:16:11;21.90;;;4.57;;
18142;SDS011;9197;50.930;3.140;2023-03-31T10:18:40;30.23;;;5.87;;
18142;SDS011;9197;50.930;3.140;2023-03-31T10:21:14;19.27;;;4.97;;
18142;SDS011;9197;50.930;3.140;2023-03-31T10:23:45;19.80;;;3.83;;
18142;SDS011;9197;50.930;3.140;2023-03-31T10:26:12;17.27;;;4.63;;
18142;SDS011;9197;50.930;3.140;2023-03-31T10:28:42;17.00;;;3.83;;
18142;SDS011;9197;50.930;3.140;2023-03-31T10:31:09;15.53;;;3.70;;
18142;SDS011;9197;50.930;3.140;2023-03-31T10:33:38;14.93;;;3.40;;
18142;SDS011;9197;50.930;3.140;2023-03-31T10:36:12;13.47;;;4.40;;
18142;SDS011;9197;50.930;3.140;2023-03-31T10:38:43;17.53;;;4.97;;
18142;SDS011;9197;50.930;3.140;2023-03-31T10:41:10;18.37;;;3.43;;
18142;SDS011;9197;50.930;3.140;2023-03-31T10:43:39;15.57;;;3.47;;
18142;SDS011;9197;50.930;3.140;2023-03-31T10:46:06;11.30;;;3.23;;
18142;SDS011;9197;50.930;3.140;2023-03-31T10:48:34;15.77;;;3.83;;
18142;SDS011;9197;50.930;3.140;2023-03-31T10:51:04;20.17;;;4.67;;
18142;SDS011;9197;50.930;3.140;2023-03-31T10:53:38;15.13;;;3.30;;
18142;SDS011;9197;50.930;3.140;2023-03-31T10:56:14;11.23;;;2.77;;
18142;SDS011;9197;50.930;3.140;2023-03-31T10:58:46;14.00;;;3.20;;
18142;SDS011;9197;50.930;3.140;2023-03-31T11:01:19;18.63;;;3.90;;
18142;SDS011;9197;50.930;3.140;2023-03-31T11:04:00;15.80;;;3.40;;
18142;SDS011;9197;50.930;3.140;2023-03-31T11:06:32;9.77;;;2.90;;
18142;SDS011;9197;50.930;3.140;2023-03-31T11:09:04;14.13;;;3.53;;
18142;SDS011;9197;50.930;3.140;2023-03-31T11:11:45;14.27;;;2.93;;
18142;SDS011;9197;50.930;3.140;2023-03-31T11:14:16;13.20;;;2.53;;
18142;SDS011;9197;50.930;3.140;2023-03-31T11:16:48;10.47;;;2.70;;
18142;SDS011;9197;50.930;3.140;2023-03-31T11:19:21;10.90;;;2.57;;
18142;SDS011;9197;50.930;3.140;2023-03-31T11:21:53;12.53;;;2.60;;
18142;SDS011;9197;50.930;3.140;2023-03-31T11:24:29;14.50;;;4.10;;
18142;SDS011;9197;50.930;3.140;2023-03-31T11:27:02;8.83;;;2.50;;
18142;SDS011;9197;50.930;3.140;2023-03-31T11:29:32;9.80;;;2.10;;
18142;SDS011;9197;50.930;3.140;2023-03-31T11:32:07;11.57;;;2.60;;
18142;SDS011;9197;50.930;3.140;2023-03-31T11:34:44;9.73;;;3.00;;
18142;SDS011;9197;50.930;3.140;2023-03-31T11:37:18;12.60;;;2.87;;
18142;SDS011;9197;50.930;3.140;2023-03-31T11:39:51;11.33;;;2.53;;
18142;SDS011;9197;50.930;3.140;2023-03-31T11:42:25;8.37;;;2.83;;
18142;SDS011;9197;50.930;3.140;2023-03-31T11:44:55;7.93;;;2.20;;
18142;SDS011;9197;50.930;3.140;2023-03-31T11:47:25;11.23;;;2.27;;
18142;SDS011;9197;50.930;3.140;2023-03-31T11:49:55;10.53;;;2.40;;
18142;SDS011;9197;50.930;3.140;2023-03-31T11:52:24;10.90;;;2.43;;
18142;SDS011;9197;50.930;3.140;2023-03-31T11:54:54;6.47;;;1.97;;
18142;SDS011;9197;50.930;3.140;2023-03-31T11:57:22;9.17;;;2.10;;
18142;SDS011;9197;50.930;3.140;2023-03-31T11:59:53;9.77;;;1.90;;
18142;SDS011;9197;50.930;3.140;2023-03-31T12:02:25;8.60;;;1.73;;
18142;SDS011;9197;50.930;3.140;2023-03-31T12:04:53;13.13;;;2.50;;
18142;SDS011;9197;50.930;3.140;2023-03-31T12:07:22;11.37;;;2.97;;
18142;SDS011;9197;50.930;3.140;2023-03-31T12:09:51;9.20;;;1.77;;
18142;SDS011;9197;50.930;3.140;2023-03-31T12:12:21;11.33;;;2.17;;
18142;SDS011;9197;50.930;3.140;2023-03-31T12:14:50;8.23;;;2.20;;
18142;SDS011;9197;50.930;3.140;2023-03-31T12:17:21;11.77;;;3.00;;
18142;SDS011;9197;50.930;3.140;2023-03-31T12:19:51;9.83;;;2.07;;
18142;SDS011;9197;50.930;3.140;2023-03-31T12:22:21;7.60;;;2.30;;
18142;SDS011;9197;50.930;3.140;2023-03-31T12:24:50;7.67;;;2.07;;
18142;SDS011;9197;50.930;3.140;2023-03-31T12:27:18;10.70;;;2.33;;
18142;SDS011;9197;50.930;3.140;2023-03-31T12:29:47;7.43;;;2.07;;
18142;SDS011;9197;50.930;3.140;2023-03-31T12:32:18;11.27;;;2.67;;
18142;SDS011;9197;50.930;3.140;2023-03-31T12:34:50;10.47;;;2.60;;
18142;SDS011;9197;50.930;3.140;2023-03-31T12:37:28;13.70;;;2.60;;
18142;SDS011;9197;50.930;3.140;2023-03-31T12:40:03;10.90;;;2.77;;
18142;SDS011;9197;50.930;3.140;2023-03-31T12:42:42;12.70;;;2.20;;
18142;SDS011;9197;50.930;3.140;2023-03-31T12:45:17;8.93;;;1.90;;
18142;SDS011;9197;50.930;3.140;2023-03-31T12:47:58;9.37;;;2.23;;
18142;SDS011;9197;50.930;3.140;2023-03-31T12:50:33;12.00;;;3.87;;
18142;SDS011;9197;50.930;3.140;2023-03-31T12:53:04;11.57;;;1.73;;
18142;SDS011;9197;50.930;3.140;2023-03-31T12:55:36;15.47;;;2.20;;
18142;SDS011;9197;50.930;3.140;2023-03-31T13:01:00;9.97;;;2.60;;
18142;SDS011;9197;50.930;3.140;2023-03-31T13:03:41;9.70;;;2.03;;
18142;SDS011;9197;50.930;3.140;2023-03-31T13:06:10;12.80;;;2.70;;
18142;SDS011;9197;50.930;3.140;2023-03-31T13:08:54;10.37;;;2.50;;
18142;SDS011;9197;50.930;3.140;2023-03-31T13:11:22;9.50;;;3.27;;
18142;SDS011;9197;50.930;3.140;2023-03-31T13:14:01;6.93;;;1.97;;
18142;SDS011;9197;50.930;3.140;2023-03-31T13:16:29;10.40;;;2.67;;
18142;SDS011;9197;50.930;3.140;2023-03-31T13:18:57;5.67;;;2.00;;
18142;SDS011;9197;50.930;3.140;2023-03-31T13:21:26;11.53;;;2.97;;
18142;SDS011;9197;50.930;3.140;2023-03-31T13:23:53;11.37;;;2.70;;
18142;SDS011;9197;50.930;3.140;2023-03-31T13:26:34;13.83;;;2.80;;
18142;SDS011;9197;50.930;3.140;2023-03-31T13:29:10;14.23;;;2.20;;
18142;SDS011;9197;50.930;3.140;2023-03-31T13:34:29;9.23;;;2.20;;
18142;SDS011;9197;50.930;3.140;2023-03-31T13:37:08;10.33;;;2.37;;
18142;SDS011;9197;50.930;3.140;2023-03-31T13:39:48;13.63;;;2.57;;
18142;SDS011;9197;50.930;3.140;2023-03-31T13:42:24;10.73;;;3.37;;
18142;SDS011;9197;50.930;3.140;2023-03-31T13:45:02;10.87;;;3.03;;
18142;SDS011;9197;50.930;3.140;2023-03-31T13:47:38;11.43;;;3.33;;
18142;SDS011;9197;50.930;3.140;2023-03-31T13:52:54;9.50;;;2.10;;
18142;SDS011;9197;50.930;3.140;2023-03-31T13:55:33;12.67;;;2.70;;
18142;SDS011;9197;50.930;3.140;2023-03-31T13:58:17;10.70;;;2.40;;
18142;SDS011;9197;50.930;3.140;2023-03-31T14:00:49;14.23;;;2.27;;
18142;SDS011;9197;50.930;3.140;2023-03-31T14:03:18;11.20;;;3.03;;
18142;SDS011;9197;50.930;3.140;2023-03-31T14:05:49;7.57;;;4.57;;
18142;SDS011;9197;50.930;3.140;2023-03-31T14:08:25;11.80;;;1.93;;
18142;SDS011;9197;50.930;3.140;2023-03-31T14:10:55;5.57;;;2.27;;
18142;SDS011;9197;50.930;3.140;2023-03-31T14:13:41;8.87;;;2.23;;
18142;SDS011;9197;50.930;3.140;2023-03-31T14:16:08;8.00;;;1.77;;
18142;SDS011;9197;50.930;3.140;2023-03-31T14:18:36;9.00;;;2.00;;
18142;SDS011;9197;50.930;3.140;2023-03-31T14:21:07;7.17;;;1.50;;
18142;SDS011;9197;50.930;3.140;2023-03-31T14:23:42;7.77;;;2.13;;
18142;SDS011;9197;50.930;3.140;2023-03-31T14:26:15;5.20;;;1.60;;
18142;SDS011;9197;50.930;3.140;2023-03-31T14:28:52;11.40;;;2.33;;
18142;SDS011;9197;50.930;3.140;2023-03-31T14:31:22;8.67;;;2.47;;
18142;SDS011;9197;50.930;3.140;2023-03-31T14:33:57;10.10;;;2.50;;
18142;SDS011;9197;50.930;3.140;2023-03-31T14:36:30;11.20;;;3.00;;
18142;SDS011;9197;50.930;3.140;2023-03-31T14:39:04;12.40;;;2.97;;
18142;SDS011;9197;50.930;3.140;2023-03-31T14:41:32;10.90;;;3.13;;
18142;SDS011;9197;50.930;3.140;2023-03-31T14:44:02;11.13;;;3.93;;
18142;SDS011;9197;50.930;3.140;2023-03-31T14:46:30;13.87;;;3.80;;
18142;SDS011;9197;50.930;3.140;2023-03-31T14:49:03;14.50;;;3.67;;
18142;SDS011;9197;50.930;3.140;2023-03-31T14:51:32;14.83;;;3.53;;
18142;SDS011;9197;50.930;3.140;2023-03-31T14:54:00;12.93;;;3.03;;
18142;SDS011;9197;50.930;3.140;2023-03-31T14:56:30;12.80;;;3.43;;
18142;SDS011;9197;50.930;3.140;2023-03-31T14:59:00;12.83;;;3.20;;
18142;SDS011;9197;50.930;3.140;2023-03-31T15:01:28;17.13;;;3.83;;
18142;SDS011;9197;50.930;3.140;2023-03-31T15:03:58;14.67;;;3.30;;
18142;SDS011;9197;50.930;3.140;2023-03-31T15:06:26;20.27;;;3.47;;
18142;SDS011;9197;50.930;3.140;2023-03-31T15:08:57;15.37;;;4.23;;
18142;SDS011;9197;50.930;3.140;2023-03-31T15:11:24;10.53;;;3.60;;
18142;SDS011;9197;50.930;3.140;2023-03-31T15:13:54;16.27;;;3.63;;
18142;SDS011;9197;50.930;3.140;2023-03-31T15:16:29;13.27;;;3.83;;
18142;SDS011;9197;50.930;3.140;2023-03-31T15:18:58;15.67;;;3.13;;
18142;SDS011;9197;50.930;3.140;2023-03-31T15:21:26;19.93;;;4.23;;
18142;SDS011;9197;50.930;3.140;2023-03-31T15:23:54;15.23;;;4.10;;